createdAt,value
2015-11-02T00:00:39.637Z,1020.8
2015-11-02T00:01:39.591Z,1020.7
2015-11-02T00:02:39.265Z,1020.8
2015-11-02T00:03:38.470Z,1020.7
2015-11-02T00:04:39.160Z,1020.7
2015-11-02T00:05:39.116Z,1020.8
2015-11-02T00:06:39.055Z,1020.7
2015-11-02T00:07:38.995Z,1020.8
2015-11-02T00:08:38.935Z,1020.6
2015-11-02T00:09:38.890Z,1020.7
2015-11-02T00:10:38.814Z,1020.8
2015-11-02T00:11:38.770Z,1020.8
2015-11-02T00:12:38.726Z,1020.8
2015-11-02T00:13:38.666Z,1020.8
2015-11-02T00:14:38.606Z,1020.8
2015-11-02T00:15:38.562Z,1020.8
2015-11-02T00:16:38.487Z,1020.8
2015-11-02T00:17:38.443Z,1020.8
2015-11-02T00:18:38.382Z,1020.9
2015-11-02T00:19:38.338Z,1020.9
2015-11-02T00:20:38.279Z,1020.8
2015-11-02T00:21:38.234Z,1020.7
2015-11-02T00:22:38.174Z,1021
2015-11-02T00:23:38.099Z,1020.9
2015-11-02T00:24:38.054Z,1020.9
2015-11-02T00:25:38.011Z,1021
2015-11-02T00:26:37.950Z,1020.8
2015-11-02T00:27:37.875Z,1020.8
2015-11-02T00:28:37.831Z,1020.9
2015-11-02T00:29:37.772Z,1020.9
2015-11-02T00:30:37.727Z,1020.8
2015-11-02T00:31:37.667Z,1020.8
2015-11-02T00:32:37.623Z,1020.8
2015-11-02T00:33:37.564Z,1020.8
2015-11-02T00:34:37.520Z,1020.8
2015-11-02T00:35:37.444Z,1020.9
2015-11-02T00:36:37.416Z,1020.7
2015-11-02T00:37:37.340Z,1020.8
2015-11-02T00:38:37.296Z,1020.9
2015-11-02T00:39:37.252Z,1020.8
2015-11-02T00:40:37.177Z,1020.8
2015-11-02T00:41:37.116Z,1020.9
2015-11-02T00:42:37.056Z,1020.8
2015-11-02T00:43:36.996Z,1020.8
2015-11-02T00:44:36.968Z,1020.8
2015-11-02T00:45:36.893Z,1020.8
2015-11-02T00:46:36.832Z,1020.8
2015-11-02T00:47:36.820Z,1020.8
2015-11-02T00:48:36.729Z,1020.8
2015-11-02T00:49:36.685Z,1021
2015-11-02T00:50:36.641Z,1020.8
2015-11-02T00:51:36.751Z,1020.8
2015-11-02T00:52:36.504Z,1020.8
2015-11-02T00:53:36.289Z,1020.9
2015-11-02T00:54:36.401Z,1021
2015-11-02T00:55:36.341Z,1021
2015-11-02T00:56:36.297Z,1020.8
2015-11-02T00:57:36.237Z,1020.8
2015-11-02T00:58:36.178Z,1020.9
2015-11-02T00:59:36.320Z,1020.8
2015-11-02T01:00:36.058Z,1020.8
2015-11-02T01:01:36.014Z,1021
2015-11-02T01:02:35.954Z,1020.9
2015-11-02T01:03:35.894Z,1020.8
2015-11-02T01:04:35.897Z,1020.9
2015-11-02T01:05:35.790Z,1020.9
2015-11-02T01:06:35.731Z,1020.9
2015-11-02T01:07:35.904Z,1020.9
2015-11-02T01:08:35.626Z,1020.9
2015-11-02T01:09:35.566Z,1020.8
2015-11-02T01:10:35.507Z,1020.9
2015-11-02T01:11:35.446Z,1020.9
2015-11-02T01:12:35.419Z,1020.8
2015-11-02T01:13:35.343Z,1020.8
2015-11-02T01:14:35.283Z,1020.8
2015-11-02T01:15:35.223Z,1020.9
2015-11-02T01:16:34.429Z,1020.8
2015-11-02T01:17:35.135Z,1020.8
2015-11-02T01:18:35.060Z,1020.8
2015-11-02T01:19:34.999Z,1020.8
2015-11-02T01:20:35.190Z,1020.9
2015-11-02T01:21:34.896Z,1020.8
2015-11-02T01:22:35.040Z,1020.8
2015-11-02T01:23:35.213Z,1020.8
2015-11-02T01:24:34.732Z,1020.7
2015-11-02T01:25:34.687Z,1020.8
2015-11-02T01:26:34.612Z,1020.7
2015-11-02T01:27:34.756Z,1020.7
2015-11-02T01:28:34.509Z,1020.8
2015-11-02T01:29:34.448Z,1020.8
2015-11-02T01:30:34.389Z,1020.8
2015-11-02T01:31:34.173Z,1020.8
2015-11-02T01:32:34.285Z,1020.7
2015-11-02T01:33:34.225Z,1020.7
2015-11-02T01:34:34.164Z,1020.8
2015-11-02T01:35:34.339Z,1020.8
2015-11-02T01:36:34.061Z,1020.8
2015-11-02T01:37:34.017Z,1020.7
2015-11-02T01:38:33.941Z,1020.6
2015-11-02T01:39:33.881Z,1020.6
2015-11-02T01:40:33.822Z,1020.7
2015-11-02T01:41:33.777Z,1020.7
2015-11-02T01:42:33.718Z,1020.7
2015-11-02T01:43:33.877Z,1020.7
2015-11-02T01:44:33.599Z,1020.7
2015-11-02T01:45:33.538Z,1020.7
2015-11-02T01:46:33.479Z,1020.6
2015-11-02T01:47:33.449Z,1020.7
2015-11-02T01:48:33.375Z,1020.7
2015-11-02T01:49:33.315Z,1020.6
2015-11-02T01:50:33.255Z,1020.7
2015-11-02T01:51:33.226Z,1020.7
2015-11-02T01:52:33.338Z,1020.5
2015-11-02T01:53:33.090Z,1020.5
2015-11-02T01:54:33.046Z,1020.5
2015-11-02T01:55:32.987Z,1020.5
2015-11-02T01:56:32.927Z,1020.6
2015-11-02T01:57:32.867Z,1020.5
2015-11-02T01:58:32.820Z,1020.6
2015-11-02T01:59:32.745Z,1020.6
2015-11-02T02:00:32.701Z,1020.4
2015-11-02T02:01:32.642Z,1020.6
2015-11-02T02:02:32.784Z,1020.6
2015-11-02T02:03:32.521Z,1020.6
2015-11-02T02:04:32.462Z,1020.6
2015-11-02T02:05:32.652Z,1020.6
2015-11-02T02:06:32.358Z,1020.5
2015-11-02T02:07:32.297Z,1020.7
2015-11-02T02:08:32.253Z,1020.5
2015-11-02T02:09:32.194Z,1020.6
2015-11-02T02:10:32.134Z,1020.6
2015-11-02T02:11:32.074Z,1020.5
2015-11-02T02:12:32.014Z,1020.5
2015-11-02T02:13:31.970Z,1020.5
2015-11-02T02:14:32.161Z,1020.5
2015-11-02T02:15:31.850Z,1020.6
2015-11-02T02:16:31.791Z,1020.5
2015-11-02T02:17:31.747Z,1020.4
2015-11-02T02:20:34.707Z,1020.4
2015-11-02T02:21:08.945Z,1020.4
2015-11-02T02:22:08.885Z,1020.6
2015-11-02T02:23:08.840Z,1020.5
2015-11-02T02:24:08.765Z,1020.5
2015-11-02T02:25:08.737Z,1020.4
2015-11-02T02:26:08.662Z,1020.4
2015-11-02T02:27:08.617Z,1020.5
2015-11-02T02:28:08.557Z,1020.5
2015-11-02T02:29:08.498Z,1020.5
2015-11-02T02:30:08.438Z,1020.5
2015-11-02T02:31:08.612Z,1020.4
2015-11-02T02:32:07.600Z,1020.4
2015-11-02T02:33:08.258Z,1020.3
2015-11-02T02:34:08.215Z,1020.4
2015-11-02T02:35:08.153Z,1020.3
2015-11-02T02:36:08.110Z,1020.2
2015-11-02T02:37:08.034Z,1020.3
2015-11-02T02:38:07.991Z,1020.3
2015-11-02T02:39:07.930Z,1020.3
2015-11-02T02:40:07.886Z,1020.3
2015-11-02T02:41:07.811Z,1020.3
2015-11-02T02:42:07.767Z,1020.3
2015-11-02T02:43:07.941Z,1020.2
2015-11-02T02:44:07.663Z,1020.3
2015-11-02T02:45:07.588Z,1020.4
2015-11-02T02:46:07.528Z,1020.3
2015-11-02T02:47:07.718Z,1020.3
2015-11-02T02:48:07.424Z,1020.4
2015-11-02T02:49:07.363Z,1020.4
2015-11-02T02:50:07.320Z,1020.4
2015-11-02T02:51:07.244Z,1020.4
2015-11-02T02:52:07.199Z,1020.2
2015-11-02T02:53:07.140Z,1020.3
2015-11-02T02:54:07.268Z,1020.3
2015-11-02T02:55:07.021Z,1020.3
2015-11-02T02:56:06.960Z,1020.4
2015-11-02T02:57:07.135Z,1020.3
2015-11-02T02:58:06.841Z,1020.3
2015-11-02T02:59:06.813Z,1020.3
2015-11-02T03:00:06.737Z,1020.4
2015-11-02T03:01:06.692Z,1020.2
2015-11-02T03:02:06.617Z,1020.4
2015-11-02T03:03:06.573Z,1020.3
2015-11-02T03:04:06.513Z,1020.4
2015-11-02T03:05:06.453Z,1020.3
2015-11-02T03:06:06.394Z,1020.3
2015-11-02T03:07:06.365Z,1020.3
2015-11-02T03:08:06.305Z,1020.4
2015-11-02T03:09:06.245Z,1020.3
2015-11-02T03:10:06.170Z,1020.4
2015-11-02T03:11:06.126Z,1020.4
2015-11-02T03:12:06.066Z,1020.2
2015-11-02T03:13:06.022Z,1020.5
2015-11-02T03:14:06.150Z,1020.4
2015-11-02T03:15:05.934Z,1020.3
2015-11-02T03:16:05.827Z,1020.3
2015-11-02T03:17:05.813Z,1020.3
2015-11-02T03:18:05.723Z,1020.3
2015-11-02T03:19:05.663Z,1020.4
2015-11-02T03:20:05.603Z,1020.3
2015-11-02T03:21:05.762Z,1020.4
2015-11-02T03:22:05.515Z,1020.4
2015-11-02T03:23:05.455Z,1020.4
2015-11-02T03:24:05.395Z,1020.3
2015-11-02T03:25:05.336Z,1020.3
2015-11-02T03:26:05.291Z,1020.3
2015-11-02T03:27:05.216Z,1020.4
2015-11-02T03:28:05.187Z,1020.4
2015-11-02T03:29:05.112Z,1020.4
2015-11-02T03:30:05.051Z,1020.3
2015-11-02T03:31:04.993Z,1020.3
2015-11-02T03:32:04.948Z,1020.2
2015-11-02T03:33:04.904Z,1020.4
2015-11-02T03:34:04.828Z,1020.3
2015-11-02T03:35:04.753Z,1020.3
2015-11-02T03:36:04.912Z,1020.4
2015-11-02T03:37:04.664Z,1020.3
2015-11-02T03:38:04.589Z,1020.4
2015-11-02T03:39:04.530Z,1020.3
2015-11-02T03:40:03.717Z,1020.3
2015-11-02T03:41:04.442Z,1020.3
2015-11-02T03:42:04.569Z,1020.4
2015-11-02T03:43:04.319Z,1020.3
2015-11-02T03:44:03.509Z,1020.3
2015-11-02T03:45:04.231Z,1020.2
2015-11-02T03:46:04.139Z,1020.4
2015-11-02T03:47:04.110Z,1020.3
2015-11-02T03:48:04.035Z,1020.2
2015-11-02T03:49:03.272Z,1020.3
2015-11-02T03:50:03.916Z,1020.3
2015-11-02T03:51:03.871Z,1020.2
2015-11-02T03:52:03.796Z,1020.2
2015-11-02T03:53:03.752Z,1020.2
2015-11-02T03:54:03.693Z,1020.3
2015-11-02T03:55:03.632Z,1020.2
2015-11-02T03:56:03.776Z,1020.1
2015-11-02T03:57:03.529Z,1020.2
2015-11-02T03:58:03.297Z,1020.2
2015-11-02T03:59:03.321Z,1020.3
2015-11-02T04:00:03.398Z,1020.3
2015-11-02T04:01:04.574Z,1020.2
2015-11-02T04:02:03.218Z,1020.2
2015-11-02T04:03:03.174Z,1020.2
2015-11-02T04:04:03.145Z,1020.2
2015-11-02T04:05:03.054Z,1020.1
2015-11-02T04:06:03.010Z,1020.1
2015-11-02T04:07:03.027Z,1020.1
2015-11-02T04:08:02.921Z,1020.1
2015-11-02T04:09:02.829Z,1020.1
2015-11-02T04:10:02.832Z,1020.1
2015-11-02T04:11:02.945Z,1020.1
2015-11-02T04:12:03.620Z,1020.1
2015-11-02T04:13:02.606Z,1020
2015-11-02T04:14:02.546Z,1020.1
2015-11-02T04:15:02.721Z,1020.1
2015-11-02T04:16:02.427Z,1020.1
2015-11-02T04:17:02.367Z,1020.1
2015-11-02T04:18:02.495Z,1020
2015-11-02T04:19:02.342Z,1020
2015-11-02T04:20:02.235Z,1020
2015-11-02T04:21:02.144Z,1020
2015-11-02T04:22:02.146Z,1020.1
2015-11-02T04:23:02.039Z,1020.1
2015-11-02T04:24:02.011Z,1020.2
2015-11-02T04:25:01.920Z,1020.1
2015-11-02T04:26:01.875Z,1020.1
2015-11-02T04:27:02.003Z,1020.1
2015-11-02T04:28:01.772Z,1020.2
2015-11-02T04:29:01.712Z,1020.2
2015-11-02T04:30:01.653Z,1020.1
2015-11-02T04:31:01.655Z,1020.2
2015-11-02T04:32:01.533Z,1020.1
2015-11-02T04:33:01.473Z,1020.2
2015-11-02T04:34:01.491Z,1020.1
2015-11-02T04:35:01.509Z,1020.2
2015-11-02T04:36:01.480Z,1020.2
2015-11-02T04:37:01.280Z,1020.2
2015-11-02T04:38:01.174Z,1020.1
2015-11-02T04:39:01.317Z,1020.2
2015-11-02T04:40:01.070Z,1020
2015-11-02T04:41:01.276Z,1020.1
2015-11-02T04:42:00.966Z,1020.1
2015-11-02T04:43:00.890Z,1020.1
2015-11-02T04:44:00.940Z,1020.2
2015-11-02T04:45:00.865Z,1020.1
2015-11-02T04:46:00.712Z,1020.2
2015-11-02T04:47:00.667Z,1020.1
2015-11-02T04:48:00.654Z,1020.1
2015-11-02T04:49:00.673Z,1020.1
2015-11-02T04:50:00.722Z,1020.1
2015-11-02T04:51:00.442Z,1020
2015-11-02T04:52:00.383Z,1020.2
2015-11-02T04:53:00.589Z,1020.2
2015-11-02T04:54:00.264Z,1020.1
2015-11-02T04:55:00.219Z,1020.1
2015-11-02T04:56:00.144Z,1020.1
2015-11-02T04:57:00.100Z,1020.1
2015-11-02T04:58:00.040Z,1020.1
2015-11-02T04:58:59.980Z,1020.1
2015-11-02T04:59:59.952Z,1020.1
2015-11-02T05:00:59.861Z,1020.2
2015-11-02T05:01:59.801Z,1020.2
2015-11-02T05:02:59.757Z,1020.2
2015-11-02T05:03:59.713Z,1020.2
2015-11-02T05:04:59.638Z,1020.2
2015-11-02T05:05:59.609Z,1020.2
2015-11-02T05:07:59.473Z,1020.2
2015-11-02T05:08:59.476Z,1020.1
2015-11-02T05:09:59.369Z,1020.2
2015-11-02T05:10:59.293Z,1020.2
2015-11-02T05:11:59.249Z,1020.3
2015-11-02T05:12:59.377Z,1020.2
2015-11-02T05:13:59.130Z,1020.2
2015-11-02T05:14:59.085Z,1020.2
2015-11-02T05:15:59.026Z,1020.2
2015-11-02T05:16:58.966Z,1020.2
2015-11-02T05:17:58.891Z,1020.2
2015-11-02T05:18:58.862Z,1020.2
2015-11-02T05:19:58.787Z,1020
2015-11-02T05:20:58.743Z,1020.1
2015-11-02T05:21:58.668Z,1020.2
2015-11-02T05:22:58.623Z,1020.1
2015-11-02T05:23:58.625Z,1020.2
2015-11-02T05:24:58.503Z,1020
2015-11-02T05:25:58.428Z,1020.1
2015-11-02T05:26:58.383Z,1020.1
2015-11-02T05:27:58.339Z,1020.1
2015-11-02T05:28:58.295Z,1020.2
2015-11-02T05:29:58.220Z,1020.2
2015-11-02T05:30:58.175Z,1020.1
2015-11-02T05:31:58.116Z,1020.2
2015-11-02T05:32:58.055Z,1020.2
2015-11-02T05:33:58.216Z,1020.2
2015-11-02T05:34:57.952Z,1020.2
2015-11-02T05:35:57.877Z,1020.2
2015-11-02T05:36:57.833Z,1020.3
2015-11-02T05:37:57.757Z,1020.3
2015-11-02T05:38:57.713Z,1020.4
2015-11-02T05:39:57.652Z,1020.3
2015-11-02T05:40:57.593Z,1020.3
2015-11-02T05:41:57.533Z,1020.3
2015-11-02T05:42:57.473Z,1020.3
2015-11-02T05:43:57.413Z,1020.4
2015-11-02T05:44:57.354Z,1020.2
2015-11-02T05:45:57.309Z,1020.5
2015-11-02T05:46:57.266Z,1020.4
2015-11-02T05:47:57.190Z,1020.3
2015-11-02T05:48:57.349Z,1020.4
2015-11-02T05:49:56.320Z,1020.3
2015-11-02T05:50:57.026Z,1020.3
2015-11-02T05:51:57.200Z,1020.4
2015-11-02T05:52:56.891Z,1020.3
2015-11-02T05:53:56.847Z,1020.3
2015-11-02T05:54:56.787Z,1020.3
2015-11-02T05:55:56.758Z,1020.3
2015-11-02T05:56:56.667Z,1020.3
2015-11-02T05:57:56.498Z,1020.3
2015-11-02T05:58:56.561Z,1020.4
2015-11-02T05:59:56.735Z,1020.3
2015-11-02T06:00:56.446Z,1020.3
2015-11-02T06:01:56.386Z,1020.4
2015-11-02T06:02:56.326Z,1020.3
2015-11-02T06:03:56.282Z,1020.4
2015-11-02T06:04:56.441Z,1020.3
2015-11-02T06:05:56.163Z,1020.2
2015-11-02T06:06:56.102Z,1020.3
2015-11-02T06:07:55.901Z,1020.3
2015-11-02T06:08:55.983Z,1020.3
2015-11-02T06:09:56.173Z,1020.4
2015-11-02T06:10:55.113Z,1020.4
2015-11-02T06:11:55.819Z,1020.3
2015-11-02T06:12:55.759Z,1020.3
2015-11-02T06:13:56.137Z,1020.4
2015-11-02T06:14:55.655Z,1020.4
2015-11-02T06:15:55.595Z,1020.3
2015-11-02T06:16:55.536Z,1020.4
2015-11-02T06:17:55.476Z,1020.3
2015-11-02T06:18:55.416Z,1020.4
2015-11-02T06:19:55.356Z,1020.3
2015-11-02T06:20:55.312Z,1020.4
2015-11-02T06:21:54.487Z,1020.4
2015-11-02T06:22:55.192Z,1020.4
2015-11-02T06:23:55.117Z,1020.4
2015-11-02T06:24:55.073Z,1020.4
2015-11-02T06:25:55.014Z,1020.3
2015-11-02T06:26:54.953Z,1020.3
2015-11-02T06:27:54.894Z,1020.4
2015-11-02T06:28:54.833Z,1020.4
2015-11-02T06:29:54.774Z,1020.3
2015-11-02T06:30:54.713Z,1020.3
2015-11-02T06:31:54.669Z,1020.4
2015-11-02T06:32:54.594Z,1020.3
2015-11-02T06:33:54.550Z,1020.3
2015-11-02T06:34:54.475Z,1020.3
2015-11-02T06:35:54.446Z,1020.3
2015-11-02T06:36:54.371Z,1020.4
2015-11-02T06:37:54.311Z,1020.4
2015-11-02T06:38:54.266Z,1020.4
2015-11-02T06:39:54.207Z,1020.5
2015-11-02T06:40:54.382Z,1020.4
2015-11-02T06:41:54.088Z,1020.4
2015-11-02T06:42:54.027Z,1020.3
2015-11-02T06:43:53.968Z,1020.3
2015-11-02T06:44:53.924Z,1020.4
2015-11-02T06:45:53.865Z,1020.3
2015-11-02T06:46:53.804Z,1020.3
2015-11-02T06:47:53.744Z,1020.4
2015-11-02T06:48:53.684Z,1020.4
2015-11-02T06:49:53.625Z,1020.3
2015-11-02T06:50:53.580Z,1020.3
2015-11-02T06:51:53.521Z,1020.3
2015-11-02T06:52:53.461Z,1020.3
2015-11-02T06:53:52.682Z,1020.3
2015-11-02T06:54:53.356Z,1020.3
2015-11-02T06:55:53.297Z,1020.2
2015-11-02T06:56:53.222Z,1020.2
2015-11-02T06:57:53.178Z,1020.3
2015-11-02T06:58:53.117Z,1020.2
2015-11-02T06:59:53.089Z,1020.3
2015-11-02T07:00:52.998Z,1020.2
2015-11-02T07:01:52.954Z,1020.2
2015-11-02T07:02:52.894Z,1020.2
2015-11-02T07:03:52.834Z,1020.2
2015-11-02T07:04:53.025Z,1020.3
2015-11-02T07:05:52.731Z,1020.3
2015-11-02T07:06:52.655Z,1020.4
2015-11-02T07:07:52.611Z,1020.3
2015-11-02T07:08:52.551Z,1020.2
2015-11-02T07:09:52.491Z,1020.2
2015-11-02T07:10:52.431Z,1020.1
2015-11-02T07:11:52.388Z,1020.2
2015-11-02T07:12:52.328Z,1020.1
2015-11-02T07:13:52.283Z,1020.1
2015-11-02T07:14:52.207Z,1020.1
2015-11-02T07:15:52.163Z,1020
2015-11-02T07:16:52.119Z,1020.1
2015-11-02T07:17:52.044Z,1019.9
2015-11-02T07:18:52.015Z,1020.2
2015-11-02T07:19:51.924Z,1020.2
2015-11-02T07:20:52.130Z,1020.1
2015-11-02T07:21:52.023Z,1020.1
2015-11-02T07:22:51.776Z,1020.1
2015-11-02T07:23:51.951Z,1020.2
2015-11-02T07:24:51.657Z,1020.1
2015-11-02T07:25:51.597Z,1020.1
2015-11-02T07:26:51.537Z,1020.1
2015-11-02T07:27:51.540Z,1020.1
2015-11-02T07:28:51.418Z,1020.1
2015-11-02T07:29:51.373Z,1020.2
2015-11-02T07:30:51.313Z,1020.2
2015-11-02T07:31:51.284Z,1020.2
2015-11-02T07:32:51.397Z,1020.2
2015-11-02T07:33:51.164Z,1020.2
2015-11-02T07:34:51.292Z,1020.1
2015-11-02T07:35:51.045Z,1020.2
2015-11-02T07:36:51.002Z,1020.2
2015-11-02T07:37:50.925Z,1020.2
2015-11-02T07:38:50.866Z,1020.2
2015-11-02T07:39:50.821Z,1020.2
2015-11-02T07:40:50.762Z,1020.2
2015-11-02T07:41:50.577Z,1020.1
2015-11-02T07:42:50.643Z,1020.2
2015-11-02T07:43:50.582Z,1020.2
2015-11-02T07:44:50.538Z,1020.2
2015-11-02T07:45:50.479Z,1020.2
2015-11-02T07:46:50.419Z,1020.2
2015-11-02T07:47:50.359Z,1020.2
2015-11-02T07:48:50.315Z,1020.1
2015-11-02T07:49:50.255Z,1020.2
2015-11-02T07:50:50.227Z,1020.2
2015-11-02T07:51:50.151Z,1020.1
2015-11-02T07:52:50.107Z,1020.2
2015-11-02T07:53:50.031Z,1020.2
2015-11-02T07:54:49.971Z,1020.2
2015-11-02T07:55:50.161Z,1020.2
2015-11-02T07:56:49.867Z,1020.2
2015-11-02T07:57:49.809Z,1020.2
2015-11-02T07:58:49.749Z,1020.2
2015-11-02T07:59:49.689Z,1020.2
2015-11-02T08:00:49.645Z,1020.1
2015-11-02T08:01:49.585Z,1020.1
2015-11-02T08:02:49.541Z,1020.2
2015-11-02T08:03:49.481Z,1020
2015-11-02T08:04:49.453Z,1020.1
2015-11-02T08:05:49.362Z,1020.2
2015-11-02T08:06:49.318Z,1020
2015-11-02T08:07:49.492Z,1020.1
2015-11-02T08:08:49.198Z,1020.1
2015-11-02T08:09:49.153Z,1020.1
2015-11-02T08:10:49.109Z,1020.2
2015-11-02T08:11:49.050Z,1020.1
2015-11-02T08:12:48.989Z,1020
2015-11-02T08:13:49.165Z,1020.2
2015-11-02T08:14:49.073Z,1020.2
2015-11-02T08:15:48.825Z,1020.1
2015-11-02T08:16:48.766Z,1020.2
2015-11-02T08:17:48.722Z,1020.2
2015-11-02T08:18:48.661Z,1020.1
2015-11-02T08:19:48.602Z,1020.1
2015-11-02T08:20:48.589Z,1020.1
2015-11-02T08:21:48.483Z,1020.1
2015-11-02T08:22:48.438Z,1020.1
2015-11-02T08:23:48.379Z,1019.9
2015-11-02T08:24:48.335Z,1019.9
2015-11-02T08:25:48.275Z,1020
2015-11-02T08:26:48.230Z,1019.9
2015-11-02T08:27:48.171Z,1019.9
2015-11-02T08:28:48.158Z,1020
2015-11-02T08:29:48.052Z,1019.9
2015-11-02T08:30:48.007Z,1020
2015-11-02T08:31:47.947Z,1020
2015-11-02T08:32:47.918Z,1019.9
2015-11-02T08:33:47.843Z,1020.1
2015-11-02T08:34:47.798Z,1019.9
2015-11-02T08:35:47.723Z,1019.9
2015-11-02T08:36:47.695Z,1019.8
2015-11-02T08:37:47.620Z,1019.9
2015-11-02T08:38:47.575Z,1019.8
2015-11-02T08:39:47.515Z,1019.9
2015-11-02T08:40:47.690Z,1020
2015-11-02T08:41:47.412Z,1019.9
2015-11-02T08:42:47.351Z,1019.8
2015-11-02T08:43:47.292Z,1019.8
2015-11-02T08:44:47.248Z,1019.8
2015-11-02T08:45:47.204Z,1019.9
2015-11-02T08:46:47.159Z,1019.8
2015-11-02T08:47:47.131Z,1019.8
2015-11-02T08:48:47.055Z,1019.9
2015-11-02T08:49:47.011Z,1019.9
2015-11-02T08:50:46.919Z,1019.8
2015-11-02T08:51:46.891Z,1019.8
2015-11-02T08:52:47.050Z,1019.8
2015-11-02T08:53:46.765Z,1019.8
2015-11-02T08:54:46.694Z,1019.7
2015-11-02T08:55:46.639Z,1019.8
2015-11-02T08:56:46.772Z,1019.8
2015-11-02T08:57:46.530Z,1019.8
2015-11-02T08:58:46.448Z,1019.7
2015-11-02T08:59:46.384Z,1019.8
2015-11-02T09:00:46.336Z,1019.7
2015-11-02T09:01:46.289Z,1019.7
2015-11-02T09:02:46.458Z,1019.8
2015-11-02T09:03:46.366Z,1019.6
2015-11-02T09:04:46.101Z,1019.6
2015-11-02T09:05:46.071Z,1019.6
2015-11-02T09:06:46.244Z,1019.6
2015-11-02T09:07:45.963Z,1019.6
2015-11-02T09:08:45.887Z,1019.6
2015-11-02T09:09:45.859Z,1019.6
2015-11-02T09:10:45.782Z,1019.6
2015-11-02T09:11:45.722Z,1019.6
2015-11-02T09:12:45.679Z,1019.6
2015-11-02T09:13:45.618Z,1019.6
2015-11-02T09:14:45.573Z,1019.7
2015-11-02T09:15:45.513Z,1019.8
2015-11-02T09:16:45.469Z,1019.7
2015-11-02T09:17:45.408Z,1019.7
2015-11-02T09:18:45.598Z,1019.6
2015-11-02T09:19:45.491Z,1019.6
2015-11-02T09:20:45.260Z,1019.6
2015-11-02T09:21:44.466Z,1019.6
2015-11-02T09:22:45.140Z,1019.7
2015-11-02T09:23:44.956Z,1019.7
2015-11-02T09:24:45.037Z,1019.7
2015-11-02T09:25:44.993Z,1019.7
2015-11-02T09:26:45.120Z,1019.7
2015-11-02T09:27:44.920Z,1019.6
2015-11-02T09:28:44.813Z,1019.6
2015-11-02T09:29:44.816Z,1019.6
2015-11-02T09:30:44.958Z,1019.8
2015-11-02T09:31:44.664Z,1019.7
2015-11-02T09:32:44.605Z,1019.7
2015-11-02T09:33:44.795Z,1019.8
2015-11-02T09:34:43.735Z,1019.6
2015-11-02T09:35:44.456Z,1019.7
2015-11-02T09:36:44.397Z,1019.5
2015-11-02T09:37:44.337Z,1019.7
2015-11-02T09:38:44.292Z,1019.7
2015-11-02T09:39:44.233Z,1019.7
2015-11-02T09:40:44.189Z,1019.7
2015-11-02T09:41:44.130Z,1019.6
2015-11-02T09:42:44.085Z,1019.7
2015-11-02T09:43:44.041Z,1019.7
2015-11-02T09:44:43.996Z,1019.7
2015-11-02T09:45:43.922Z,1019.6
2015-11-02T09:46:43.720Z,1019.6
2015-11-02T09:47:43.816Z,1019.7
2015-11-02T09:48:43.757Z,1019.6
2015-11-02T09:49:43.697Z,1019.7
2015-11-02T09:50:43.668Z,1019.7
2015-11-02T09:51:43.609Z,1019.6
2015-11-02T09:52:43.784Z,1019.6
2015-11-02T09:53:43.490Z,1019.7
2015-11-02T09:54:43.446Z,1019.7
2015-11-02T09:55:43.588Z,1019.5
2015-11-02T09:56:43.341Z,1019.5
2015-11-02T09:57:42.985Z,1019.5
2015-11-02T09:58:43.468Z,1019.7
2015-11-02T09:59:43.174Z,1019.7
2015-11-02T10:00:43.119Z,1019.6
2015-11-02T10:01:43.075Z,1019.6
2015-11-02T10:02:43.015Z,1019.5
2015-11-02T10:03:42.970Z,1019.6
2015-11-02T10:04:42.910Z,1019.6
2015-11-02T10:05:42.851Z,1019.6
2015-11-02T10:06:42.822Z,1019.6
2015-11-02T10:07:42.950Z,1019.5
2015-11-02T10:08:42.703Z,1019.6
2015-11-02T10:09:42.643Z,1019.6
2015-11-02T10:10:42.598Z,1019.6
2015-11-02T10:11:42.539Z,1019.4
2015-11-02T10:12:42.495Z,1019.5
2015-11-02T10:13:42.435Z,1019.5
2015-11-02T10:14:42.390Z,1019.5
2015-11-02T10:15:42.331Z,1019.5
2015-11-02T10:16:42.287Z,1019.5
2015-11-02T10:17:42.228Z,1019.5
2015-11-02T10:18:41.433Z,1019.5
2015-11-02T10:19:42.122Z,1019.5
2015-11-02T10:20:42.078Z,1019.5
2015-11-02T10:21:42.222Z,1019.4
2015-11-02T10:22:41.958Z,1019.3
2015-11-02T10:23:42.352Z,1019.4
2015-11-02T10:24:41.871Z,1019.3
2015-11-02T10:25:41.811Z,1019.5
2015-11-02T10:26:41.766Z,1019.2
2015-11-02T10:27:41.707Z,1019.3
2015-11-02T10:28:41.663Z,1019.3
2015-11-02T10:29:41.791Z,1019.3
2015-11-02T10:30:41.558Z,1019.4
2015-11-02T10:31:41.483Z,1019.1
2015-11-02T10:32:41.439Z,1019.1
2015-11-02T10:33:41.380Z,1019.2
2015-11-02T10:34:41.335Z,1019.2
2015-11-02T10:35:41.291Z,1019.3
2015-11-02T10:36:41.231Z,1019.3
2015-11-02T10:37:41.421Z,1019.3
2015-11-02T10:38:40.376Z,1019.2
2015-11-02T10:39:41.098Z,1019.3
2015-11-02T10:40:41.039Z,1019.2
2015-11-02T10:41:40.979Z,1019.3
2015-11-02T10:42:40.919Z,1019.2
2015-11-02T10:43:40.875Z,1019.3
2015-11-02T10:44:40.815Z,1019.2
2015-11-02T10:45:40.771Z,1019.2
2015-11-02T10:46:40.711Z,1019.2
2015-11-02T10:47:40.683Z,1019.2
2015-11-02T10:48:40.811Z,1019.2
2015-11-02T10:49:40.564Z,1019.1
2015-11-02T10:50:40.519Z,1019.1
2015-11-02T10:51:40.475Z,1019.1
2015-11-02T10:52:40.258Z,1019.1
2015-11-02T10:53:40.370Z,1019
2015-11-02T10:54:40.169Z,1019.2
2015-11-02T10:55:40.250Z,1019.1
2015-11-02T10:56:40.207Z,1019
2015-11-02T10:57:40.146Z,1019.1
2015-11-02T10:58:40.101Z,1019.2
2015-11-02T10:59:40.057Z,1018.9
2015-11-02T11:00:39.998Z,1019
2015-11-02T11:01:39.938Z,1019
2015-11-02T11:02:39.893Z,1019.1
2015-11-02T11:03:39.834Z,1019
2015-11-02T11:04:39.806Z,1019.1
2015-11-02T11:05:39.730Z,1019
2015-11-02T11:06:39.686Z,1019
2015-11-02T11:07:39.656Z,1019
2015-11-02T11:08:39.582Z,1018.9
2015-11-02T11:09:39.522Z,1019
2015-11-02T11:10:39.322Z,1019
2015-11-02T11:11:39.417Z,1019
2015-11-02T11:12:39.389Z,1019
2015-11-02T11:13:39.330Z,1019
2015-11-02T11:14:39.270Z,1019
2015-11-02T11:15:39.210Z,1018.9
2015-11-02T11:16:39.166Z,1019
2015-11-02T11:17:39.122Z,1019
2015-11-02T11:18:39.062Z,1018.9
2015-11-02T11:19:39.033Z,1018.9
2015-11-02T11:20:38.957Z,1019
2015-11-02T11:21:38.914Z,1018.9
2015-11-02T11:22:38.854Z,1018.9
2015-11-02T11:23:38.810Z,1019
2015-11-02T11:24:38.750Z,1019
2015-11-02T11:25:38.705Z,1018.8
2015-11-02T11:26:38.645Z,1019
2015-11-02T11:27:38.601Z,1018.8
2015-11-02T11:28:38.557Z,1018.8
2015-11-02T11:29:38.498Z,1018.8
2015-11-02T11:30:38.453Z,1018.9
2015-11-02T11:31:38.393Z,1018.8
2015-11-02T11:32:37.599Z,1018.8
2015-11-02T11:33:38.306Z,1018.7
2015-11-02T11:34:38.246Z,1018.7
2015-11-02T11:35:38.201Z,1018.7
2015-11-02T11:36:38.172Z,1018.8
2015-11-02T11:37:38.300Z,1018.7
2015-11-02T11:38:38.053Z,1018.6
2015-11-02T11:39:38.227Z,1018.6
2015-11-02T11:40:37.950Z,1018.6
2015-11-02T11:41:38.092Z,1018.6
2015-11-02T11:42:37.844Z,1018.6
2015-11-02T11:43:37.785Z,1018.6
2015-11-02T11:44:37.741Z,1018.6
2015-11-02T11:45:37.869Z,1018.6
2015-11-02T11:46:37.636Z,1018.5
2015-11-02T11:47:37.593Z,1018.6
2015-11-02T11:48:37.533Z,1018.6
2015-11-02T11:49:37.474Z,1018.5
2015-11-02T11:50:37.445Z,1018.6
2015-11-02T11:51:37.369Z,1018.6
2015-11-02T11:52:37.340Z,1018.6
2015-11-02T11:53:37.499Z,1018.4
2015-11-02T11:54:37.252Z,1018.5
2015-11-02T11:55:37.161Z,1018.5
2015-11-02T11:56:37.117Z,1018.6
2015-11-02T11:57:37.073Z,1018.3
2015-11-02T11:58:37.029Z,1018.5
2015-11-02T11:59:36.968Z,1018.5
2015-11-02T12:00:36.909Z,1018.6
2015-11-02T12:01:36.865Z,1018.5
2015-11-02T12:02:36.821Z,1018.5
2015-11-02T12:03:36.761Z,1018.4
2015-11-02T12:04:36.717Z,1018.6
2015-11-02T12:05:36.688Z,1018.4
2015-11-02T12:06:36.613Z,1018.4
2015-11-02T12:07:36.568Z,1018.4
2015-11-02T12:08:36.509Z,1018.4
2015-11-02T12:09:36.464Z,1018.4
2015-11-02T12:10:36.420Z,1018.4
2015-11-02T12:11:36.375Z,1018.3
2015-11-02T12:12:36.316Z,1018.4
2015-11-02T12:13:36.272Z,1018.3
2015-11-02T12:14:36.244Z,1018.3
2015-11-02T12:15:36.386Z,1018.3
2015-11-02T12:16:36.108Z,1018.2
2015-11-02T12:17:36.299Z,1018.2
2015-11-02T12:18:36.239Z,1018.3
2015-11-02T12:19:35.975Z,1018.2
2015-11-02T12:20:36.119Z,1018.2
2015-11-02T12:21:35.872Z,1018.1
2015-11-02T12:22:35.813Z,1018.2
2015-11-02T12:23:35.768Z,1018.2
2015-11-02T12:24:35.739Z,1018.1
2015-11-02T12:25:35.663Z,1018.2
2015-11-02T12:26:35.635Z,1018.2
2015-11-02T12:27:35.575Z,1018.2
2015-11-02T12:28:35.546Z,1018.1
2015-11-02T12:29:35.502Z,1018.1
2015-11-02T12:30:35.443Z,1018.1
2015-11-02T12:31:35.399Z,1018.1
2015-11-02T12:32:35.339Z,1018.1
2015-11-02T12:33:35.310Z,1018.1